Time;durP1;ratioP1;P1;durP2;ratioP2;P2;SDS_P1;SDS_P2;PMS_P1;PMS_P2;Temp;Humidity;BMP_temperature;BMP_pressure;BME280_temperature;BME280_humidity;BME280_pressure;Samples;Min_cycle;Max_cycle;Signal;HPM_P1;HPM_P2
2021/05/14 00:00:22;;;;;;;6.77;1.90;;;;;;;9.59;100.00;95478.50;5077027;28;20227;-72
2021/05/14 00:02:47;;;;;;;4.40;2.10;;;;;;;9.63;100.00;95481.56;5076927;28;20207;-72
2021/05/14 00:05:14;;;;;;;3.33;2.10;;;;;;;9.60;100.00;95482.75;5076579;28;20206;-72
2021/05/14 00:07:40;;;;;;;3.67;1.80;;;;;;;9.56;100.00;95478.06;5076615;28;20657;-72
2021/05/14 00:10:07;;;;;;;4.03;2.07;;;;;;;9.55;100.00;95477.25;5077018;28;20215;-72
2021/05/14 00:12:34;;;;;;;3.27;2.13;;;;;;;9.56;100.00;95478.06;5076942;28;20208;-72
2021/05/14 00:15:01;;;;;;;3.40;1.93;;;;;;;9.53;100.00;95481.06;5078134;28;20240;-72
2021/05/14 00:17:27;;;;;;;5.13;1.97;;;;;;;9.51;100.00;95477.81;5081061;28;20220;-72
2021/05/14 00:19:53;;;;;;;6.03;2.00;;;;;;;9.50;100.00;95476.19;5081063;28;20235;-72
2021/05/14 00:22:19;;;;;;;4.93;2.23;;;;;;;9.50;100.00;95473.56;5080933;28;20224;-72
2021/05/14 00:24:47;;;;;;;4.20;1.93;;;;;;;9.54;100.00;95477.44;5078588;28;20223;-72
2021/05/14 00:27:13;;;;;;;3.30;2.03;;;;;;;9.60;100.00;95480.13;5079767;28;20284;-72
2021/05/14 00:29:40;;;;;;;3.93;1.70;;;;;;;9.56;100.00;95470.16;5081090;28;21122;-72
2021/05/14 00:32:07;;;;;;;3.77;2.03;;;;;;;9.61;100.00;95468.63;5081021;28;20673;-72
2021/05/14 00:34:32;;;;;;;3.37;2.00;;;;;;;9.71;100.00;95464.66;5080831;28;20203;-72
2021/05/14 00:36:58;;;;;;;2.30;1.77;;;;;;;9.65;100.00;95467.22;5080602;28;20556;-72
2021/05/14 00:39:24;;;;;;;5.17;1.90;;;;;;;9.50;100.00;95469.13;5080451;28;20227;-72
2021/05/14 00:41:50;;;;;;;3.37;1.80;;;;;;;9.46;100.00;95467.06;5080927;28;20216;-72
2021/05/14 00:44:27;;;;;;;6.40;2.20;;;;;;;9.47;100.00;95466.88;5080383;28;20288;-72
2021/05/14 00:46:55;;;;;;;3.67;2.07;;;;;;;9.48;100.00;95465.88;5079038;28;20806;-72
2021/05/14 00:49:21;;;;;;;3.40;2.10;;;;;;;9.57;100.00;95469.16;5080437;28;21286;-72
2021/05/14 00:51:48;;;;;;;3.87;2.10;;;;;;;9.57;100.00;95472.63;5081100;28;20215;-72
2021/05/14 00:54:15;;;;;;;2.40;1.80;;;;;;;9.57;100.00;95466.53;5079442;28;20547;-72
2021/05/14 00:56:41;;;;;;;3.13;2.00;;;;;;;9.43;100.00;95470.88;5079686;28;20207;-72
2021/05/14 00:59:07;;;;;;;2.10;1.67;;;;;;;9.38;100.00;95472.44;5081071;28;20230;-72
2021/05/14 01:01:33;;;;;;;4.63;2.40;;;;;;;9.40;100.00;95470.44;5080216;28;20249;-72
2021/05/14 01:03:59;;;;;;;4.30;1.83;;;;;;;9.39;100.00;95471.44;5080397;28;20200;-72
2021/05/14 01:06:26;;;;;;;4.13;1.97;;;;;;;9.42;100.00;95471.88;5079549;28;20204;-72
2021/05/14 01:08:51;;;;;;;3.40;2.10;;;;;;;9.48;100.00;95467.69;5080315;28;20246;-72
2021/05/14 01:11:18;;;;;;;4.63;1.90;;;;;;;9.51;100.00;95476.00;5079691;28;20224;-72
2021/05/14 01:13:44;;;;;;;3.03;1.90;;;;;;;9.43;100.00;95470.88;5080841;28;20196;-72
2021/05/14 01:16:10;;;;;;;5.20;2.13;;;;;;;9.50;100.00;95463.06;5079392;28;20211;-72
2021/05/14 01:18:36;;;;;;;2.63;1.77;;;;;;;9.48;100.00;95467.69;5079883;28;20203;-72
2021/05/14 01:21:04;;;;;;;5.07;2.13;;;;;;;9.47;100.00;95466.03;5079452;28;20220;-72
2021/05/14 01:23:29;;;;;;;5.93;2.20;;;;;;;9.42;100.00;95468.41;5080104;28;20204;-72
2021/05/14 01:25:55;;;;;;;3.67;2.17;;;;;;;9.31;100.00;95463.69;5074739;28;20207;-72
2021/05/14 01:28:22;;;;;;;4.50;1.97;;;;;;;9.37;100.00;95460.31;5079747;28;20203;-72
2021/05/14 01:30:48;;;;;;;2.70;1.90;;;;;;;9.45;100.00;95473.31;5079526;28;20223;-72
2021/05/14 01:33:13;;;;;;;5.43;2.00;;;;;;;9.39;100.00;95471.44;5079814;28;20200;-72
2021/05/14 01:35:40;;;;;;;3.40;2.00;;;;;;;9.32;100.00;95468.75;5078610;28;20215;-72
2021/05/14 01:38:07;;;;;;;7.40;2.20;;;;;;;9.31;100.00;95463.69;5079497;28;20235;-72
2021/05/14 01:40:35;;;;;;;4.50;2.00;;;;;;;9.29;100.00;95463.88;5079086;28;20228;-72
2021/05/14 01:43:00;;;;;;;6.63;2.33;;;;;;;9.17;100.00;95472.44;5079619;28;20692;-72
2021/05/14 01:45:27;;;;;;;5.23;2.17;;;;;;;9.16;100.00;95465.53;5079051;28;20291;-72
2021/05/14 01:47:53;;;;;;;4.53;2.00;;;;;;;9.05;100.00;95467.84;5079484;28;20216;-72
2021/05/14 01:50:19;;;;;;;5.57;1.93;;;;;;;9.04;100.00;95474.09;5079290;28;20369;-72
2021/05/14 01:52:45;;;;;;;3.23;2.10;;;;;;;9.04;100.00;95477.56;5079477;28;21108;-72
2021/05/14 01:55:13;;;;;;;4.83;2.10;;;;;;;9.00;100.00;95472.84;5079018;28;20286;-72
2021/05/14 01:57:39;;;;;;;2.80;2.00;;;;;;;8.94;100.00;95474.41;5079241;28;20204;-72
2021/05/14 02:00:07;;;;;;;2.40;1.60;;;;;;;8.91;100.00;95477.41;5079582;28;20220;-72
2021/05/14 02:02:33;;;;;;;2.67;2.03;;;;;;;8.89;100.00;95471.53;5079683;28;20204;-72
2021/05/14 02:05:00;;;;;;;3.03;1.97;;;;;;;8.86;100.00;95474.53;5078977;28;20665;-72
2021/05/14 02:07:26;;;;;;;3.70;2.00;;;;;;;8.73;100.00;95486.69;5077995;28;20211;-72
2021/05/14 02:09:53;;;;;;;2.07;1.80;;;;;;;8.62;100.00;95485.34;5078963;28;20219;-72
2021/05/14 02:12:19;;;;;;;2.60;1.97;;;;;;;8.47;100.00;95485.56;5078728;28;20749;-72
2021/05/14 02:14:45;;;;;;;6.30;1.90;;;;;;;8.57;100.00;95487.69;5078615;28;20204;-72
2021/05/14 02:17:11;;;;;;;4.13;2.13;;;;;;;8.49;100.00;95484.38;5078345;28;20210;-72
2021/05/14 02:19:37;;;;;;;4.10;1.90;;;;;;;8.48;100.00;95487.16;5078631;28;20223;-72
2021/05/14 02:22:03;;;;;;;3.13;2.10;;;;;;;8.40;100.00;95474.97;5079229;28;21010;-72
2021/05/14 02:24:29;;;;;;;2.97;1.80;;;;;;;8.40;100.00;95479.38;5078748;28;20200;-72
2021/05/14 02:26:55;;;;;;;4.13;2.00;;;;;;;8.28;100.00;95486.91;5078009;28;20215;-72
2021/05/14 02:29:22;;;;;;;3.77;1.83;;;;;;;8.29;100.00;95477.22;5074732;28;20243;-72
2021/05/14 02:31:48;;;;;;;4.17;1.90;;;;;;;8.29;100.00;95479.84;5078145;28;20265;-72
2021/05/14 02:34:14;;;;;;;3.07;1.83;;;;;;;8.20;100.00;95475.69;5078814;28;20228;-72
2021/05/14 02:36:41;;;;;;;4.90;1.83;;;;;;;8.16;100.00;95469.97;5078175;28;20695;-72
2021/05/14 02:39:08;;;;;;;4.97;2.20;;;;;;;8.19;100.00;95477.47;5076735;28;20238;-72
2021/05/14 02:41:35;;;;;;;6.67;2.37;;;;;;;8.19;100.00;95481.94;5078550;28;20227;-72
2021/05/14 02:44:01;;;;;;;13.07;7.33;;;;;;;8.15;100.00;95478.03;5078488;28;20196;-72
2021/05/14 02:46:28;;;;;;;9.37;6.40;;;;;;;8.21;100.00;95477.31;5078112;28;20207;-72
2021/05/14 02:48:54;;;;;;;11.00;6.93;;;;;;;8.19;100.00;95482.72;5077854;28;20208;-72
2021/05/14 02:51:20;;;;;;;10.37;5.97;;;;;;;8.19;100.00;95479.31;5078189;28;20224;-72
2021/05/14 02:53:46;;;;;;;12.13;4.50;;;;;;;8.14;100.00;95474.59;5078260;28;20195;-72
2021/05/14 02:56:11;;;;;;;6.50;4.30;;;;;;;8.18;100.00;95480.28;5077433;28;20203;-72
2021/05/14 02:58:37;;;;;;;9.90;4.00;;;;;;;8.22;100.00;95482.38;5078225;28;20238;-72
2021/05/14 03:01:04;;;;;;;6.57;3.67;;;;;;;8.24;100.00;95480.38;5077824;28;20226;-72
2021/05/14 03:03:30;;;;;;;4.60;3.00;;;;;;;8.20;100.00;95478.31;5077897;28;20215;-72
2021/05/14 03:05:56;;;;;;;3.93;3.00;;;;;;;8.21;100.00;95485.16;5077493;28;20203;-72
2021/05/14 03:08:22;;;;;;;4.83;2.57;;;;;;;8.20;100.00;95480.94;5077637;28;20245;-72
2021/05/14 03:10:48;;;;;;;6.43;4.40;;;;;;;8.16;100.00;95493.59;5077430;28;20220;-72
2021/05/14 03:13:14;;;;;;;5.77;4.03;;;;;;;8.27;100.00;95480.00;5077619;28;20218;-72
2021/05/14 03:15:40;;;;;;;7.20;5.43;;;;;;;8.30;100.00;95481.47;5077779;28;21139;-72
2021/05/14 03:18:06;;;;;;;8.93;5.20;;;;;;;8.30;100.00;95476.22;5077885;28;20203;-72
2021/05/14 03:20:33;;;;;;;9.13;5.50;;;;;;;8.43;100.00;95473.78;5077247;28;20220;-72
2021/05/14 03:22:59;;;;;;;11.40;7.27;;;;;;;8.35;100.00;95476.47;5077961;28;20556;-72
2021/05/14 03:25:25;;;;;;;9.90;6.10;;;;;;;8.47;100.00;95481.09;5077012;28;20204;-72
2021/05/14 03:27:51;;;;;;;7.50;5.60;;;;;;;8.53;100.00;95485.63;5077190;28;21172;-72
2021/05/14 03:30:17;;;;;;;5.93;3.67;;;;;;;8.59;100.00;95490.13;5077884;28;20227;-72
2021/05/14 03:32:44;;;;;;;5.47;3.70;;;;;;;8.63;100.00;95481.72;5074805;28;20215;-72
2021/05/14 03:35:11;;;;;;;5.47;3.50;;;;;;;8.67;100.00;95474.31;5076628;28;20592;-72
2021/05/14 03:37:38;;;;;;;14.13;6.07;;;;;;;8.66;100.00;95473.47;5077940;28;20212;-72
2021/05/14 03:40:16;;;;;;;10.97;6.13;;;;;;;8.69;100.00;95478.38;5076873;28;20893;-72
2021/05/14 03:42:42;;;;;;;9.30;3.90;;;;;;;8.57;100.00;95471.94;5076919;28;20619;-72
2021/05/14 03:45:09;;;;;;;6.73;3.60;;;;;;;8.61;100.00;95478.44;5076752;28;20275;-72
2021/05/14 03:47:35;;;;;;;10.27;4.07;;;;;;;8.59;100.00;95480.47;5077389;28;20200;-72
2021/05/14 03:50:01;;;;;;;7.57;3.33;;;;;;;8.56;100.00;95475.56;5076534;28;20220;-72
2021/05/14 03:52:27;;;;;;;4.57;2.70;;;;;;;8.51;100.00;95480.56;5077712;28;20476;-72
2021/05/14 03:54:54;;;;;;;8.00;4.27;;;;;;;8.52;100.00;95481.38;5076779;28;20599;-72
2021/05/14 03:57:20;;;;;;;9.43;4.17;;;;;;;8.47;100.00;95475.06;5075939;28;20203;-72
2021/05/14 03:59:46;;;;;;;12.53;4.47;;;;;;;8.57;100.00;95479.00;5077492;28;20216;-72
2021/05/14 04:02:12;;;;;;;8.20;3.67;;;;;;;8.56;100.00;95475.56;5077154;28;20195;-72
2021/05/14 04:04:38;;;;;;;6.27;3.20;;;;;;;8.57;100.00;95477.19;5077651;28;20214;-72
2021/05/14 04:07:05;;;;;;;5.60;3.20;;;;;;;8.54;100.00;95480.19;5076133;28;20300;-72
2021/05/14 04:09:32;;;;;;;7.77;4.03;;;;;;;8.56;100.00;95480.81;5077707;28;20569;-72
2021/05/14 04:12:11;;;;;;;14.90;7.63;;;;;;;8.52;100.00;95486.63;5076413;28;20219;-72
2021/05/14 04:14:37;;;;;;;12.13;6.50;;;;;;;8.52;100.00;95479.53;5076791;28;20691;-72
2021/05/14 04:17:05;;;;;;;11.97;6.33;;;;;;;8.52;100.00;95484.81;5076252;28;20337;-72
2021/05/14 04:19:32;;;;;;;12.93;6.80;;;;;;;8.48;100.00;95482.75;5077142;28;20281;-72
2021/05/14 04:22:00;;;;;;;14.07;7.27;;;;;;;8.48;100.00;95479.28;5076336;28;20262;-72
2021/05/14 04:24:27;;;;;;;10.47;5.80;;;;;;;8.44;100.00;95486.72;5077134;28;20203;-72
2021/05/14 04:26:55;;;;;;;8.93;4.50;;;;;;;8.48;100.00;95484.53;5075287;28;20677;-72
2021/05/14 04:29:22;;;;;;;7.00;4.27;;;;;;;8.59;100.00;95479.63;5076987;28;20203;-72
2021/05/14 04:31:49;;;;;;;9.17;4.33;;;;;;;8.62;100.00;95480.09;5077373;28;20285;-72
2021/05/14 04:34:18;;;;;;;6.50;3.50;;;;;;;8.60;100.00;95482.09;5077109;28;20216;-72
2021/05/14 04:36:44;;;;;;;4.60;2.87;;;;;;;8.62;100.00;95482.72;5075267;28;20200;-72
2021/05/14 04:39:11;;;;;;;4.30;2.60;;;;;;;8.63;100.00;95479.09;5076889;28;20580;-72
2021/05/14 04:41:37;;;;;;;6.00;2.93;;;;;;;8.53;100.00;95491.69;5076023;28;20790;-72
2021/05/14 04:44:04;;;;;;;3.23;2.17;;;;;;;8.51;100.00;95491.06;5076766;28;20669;-72
2021/05/14 04:46:31;;;;;;;4.00;2.33;;;;;;;8.47;100.00;95480.28;5076677;28;20241;-72
2021/05/14 04:48:57;;;;;;;4.43;2.30;;;;;;;8.53;100.00;95485.63;5076301;28;20207;-72
2021/05/14 04:51:25;;;;;;;5.37;2.37;;;;;;;8.54;100.00;95472.31;5076452;28;20219;-71
2021/05/14 04:53:51;;;;;;;4.17;2.10;;;;;;;8.53;100.00;95481.19;5077060;28;20353;-71
2021/05/14 04:56:17;;;;;;;6.47;2.60;;;;;;;8.56;100.00;95475.56;5075538;28;20662;-71
2021/05/14 04:58:43;;;;;;;4.93;2.07;;;;;;;8.62;100.00;95472.22;5076261;28;20199;-72
2021/05/14 05:01:13;;;;;;;3.80;2.23;;;;;;;8.74;100.00;95472.56;5076328;28;20235;-71
2021/05/14 05:03:43;;;;;;;4.27;2.20;;;;;;;8.80;100.00;95472.63;5079960;28;20256;-71
2021/05/14 05:06:09;;;;;;;5.60;2.30;;;;;;;8.82;100.00;95481.16;5079295;28;20207;-71
2021/05/14 05:08:35;;;;;;;7.03;2.30;;;;;;;8.92;100.00;95480.84;5080293;28;20208;-71
2021/05/14 05:11:01;;;;;;;3.40;2.20;;;;;;;8.98;100.00;95477.50;5080328;28;20292;-71
2021/05/14 05:13:27;;;;;;;5.57;2.60;;;;;;;9.02;100.00;95476.91;5079443;28;20239;-71
2021/05/14 05:15:53;;;;;;;8.07;3.23;;;;;;;9.04;100.00;95474.94;5080035;28;20216;-71
2021/05/14 05:18:19;;;;;;;10.47;4.47;;;;;;;8.98;100.00;95478.28;5079680;28;20262;-72
2021/05/14 05:20:46;;;;;;;21.43;7.77;;;;;;;9.12;100.00;95485.31;5079967;28;20685;-71
2021/05/14 05:23:12;;;;;;;16.47;6.77;;;;;;;9.16;100.00;95476.88;5079768;28;20250;-71
2021/05/14 05:25:38;;;;;;;8.23;3.67;;;;;;;9.28;100.00;95482.47;5076937;28;20204;-71
2021/05/14 05:28:04;;;;;;;3.30;2.10;;;;;;;9.27;100.00;95481.63;5079507;28;20195;-71
2021/05/14 05:30:30;;;;;;;5.07;2.10;;;;;;;9.32;100.00;95483.72;5079710;28;20572;-72
2021/05/14 05:32:56;;;;;;;5.53;2.40;;;;;;;9.41;100.00;95482.59;5079500;28;20218;-71
2021/05/14 05:35:22;;;;;;;6.17;2.43;;;;;;;9.49;100.00;95485.88;5078560;28;20227;-71
2021/05/14 05:37:49;;;;;;;4.53;3.20;;;;;;;9.61;100.00;95481.78;5079361;28;20212;-71
2021/05/14 05:40:15;;;;;;;6.03;3.27;;;;;;;9.66;100.00;95486.44;5079549;28;20223;-71
2021/05/14 05:42:41;;;;;;;6.80;3.37;;;;;;;9.75;100.00;95486.16;5079673;28;20242;-72
2021/05/14 05:45:08;;;;;;;5.73;2.50;;;;;;;9.82;98.66;95493.06;5078717;28;20356;-72
2021/05/14 05:47:35;;;;;;;4.50;2.10;;;;;;;9.77;98.71;95484.91;5079095;28;20685;-71
2021/05/14 05:50:01;;;;;;;7.10;3.23;;;;;;;9.83;99.55;95483.38;5079983;28;20212;-71
2021/05/14 05:52:27;;;;;;;5.07;2.53;;;;;;;9.87;98.24;95490.66;5079393;28;20200;-71
2021/05/14 05:54:54;;;;;;;9.67;4.27;;;;;;;9.90;99.06;95487.69;5079217;28;20196;-71
2021/05/14 05:57:20;;;;;;;3.17;2.00;;;;;;;9.95;98.36;95481.84;5078364;28;20216;-71
2021/05/14 05:59:46;;;;;;;6.53;2.00;;;;;;;9.92;96.77;95492.75;5078809;28;20230;-71
2021/05/14 06:02:12;;;;;;;7.03;2.53;;;;;;;10.00;98.04;95490.81;5078398;28;20227;-71
2021/05/14 06:04:39;;;;;;;3.93;2.13;;;;;;;10.00;97.38;95493.44;5079165;28;20673;-71
2021/05/14 06:07:05;;;;;;;7.50;2.50;;;;;;;10.12;98.95;95494.56;5078918;28;20733;-71
2021/05/14 06:09:32;;;;;;;2.57;1.87;;;;;;;10.25;96.33;95499.09;5078345;28;21074;-71
2021/05/14 06:11:59;;;;;;;2.63;1.63;;;;;;;10.31;95.70;95501.78;5078650;28;20236;-71
2021/05/14 06:14:25;;;;;;;3.97;1.67;;;;;;;10.35;96.00;95503.00;5078866;28;20208;-71
2021/05/14 06:16:51;;;;;;;3.77;2.30;;;;;;;10.42;96.23;95501.22;5078125;28;20633;-71
2021/05/14 06:19:21;;;;;;;5.17;2.03;;;;;;;10.44;94.42;95505.28;5078269;28;20200;-71
2021/05/14 06:21:48;;;;;;;4.80;1.90;;;;;;;10.58;93.93;95503.56;5078816;28;20352;-71
2021/05/14 06:24:16;;;;;;;3.23;2.23;;;;;;;10.63;93.73;95507.22;5078588;28;20566;-71
2021/05/14 06:26:42;;;;;;;3.37;1.80;;;;;;;10.73;93.21;95506.84;5075780;28;20207;-71
2021/05/14 06:29:09;;;;;;;1.97;1.43;;;;;;;10.72;91.99;95507.88;5078422;28;20210;-71
2021/05/14 06:31:36;;;;;;;2.77;1.50;;;;;;;10.83;91.78;95505.47;5078431;28;20219;-71
2021/05/14 06:34:02;;;;;;;3.50;1.77;;;;;;;10.84;89.37;95506.31;5078232;28;20200;-71
2021/05/14 06:36:28;;;;;;;3.83;1.70;;;;;;;10.87;91.77;95508.53;5078091;28;20265;-71
2021/05/14 06:38:54;;;;;;;3.63;1.40;;;;;;;10.87;92.35;95509.38;5078208;28;20203;-71
2021/05/14 06:41:20;;;;;;;5.95;1.83;;;;;;;10.95;91.42;95507.38;5078082;28;20227;-71
2021/05/14 06:43:46;;;;;;;3.53;1.80;;;;;;;11.10;90.81;95510.69;5078483;28;20199;-71
2021/05/14 06:46:14;;;;;;;3.37;1.73;;;;;;;11.11;91.70;95503.56;5077606;28;20200;-71
2021/05/14 06:48:41;;;;;;;3.40;1.50;;;;;;;11.28;90.65;95507.50;5078523;28;20204;-71
2021/05/14 06:51:07;;;;;;;4.07;1.80;;;;;;;11.37;90.46;95501.03;5077752;28;20223;-71
2021/05/14 06:53:34;;;;;;;3.25;1.58;;;;;;;11.46;90.80;95497.19;5078515;28;20264;-71
2021/05/14 06:55:59;;;;;;;5.15;1.90;;;;;;;11.40;89.68;95506.72;5077232;28;20200;-71
2021/05/14 06:58:25;;;;;;;3.80;1.73;;;;;;;11.55;90.92;95508.19;5077750;28;20242;-71
2021/05/14 07:00:51;;;;;;;4.45;1.63;;;;;;;11.65;91.09;95515.72;5078680;28;20258;-71
2021/05/14 07:03:18;;;;;;;6.68;2.38;;;;;;;11.64;91.48;95522.81;5078116;28;20250;-71
2021/05/14 07:05:44;;;;;;;4.70;1.73;;;;;;;11.76;89.04;95517.75;5076704;28;20208;-71
2021/05/14 07:08:10;;;;;;;6.05;2.65;;;;;;;11.88;89.90;95518.81;5078010;28;20203;-71
2021/05/14 07:10:36;;;;;;;3.42;1.90;;;;;;;11.80;87.65;95506.63;5077658;28;20248;-71
2021/05/14 07:13:02;;;;;;;3.00;1.53;;;;;;;11.75;85.38;95513.53;5077456;28;20204;-71
2021/05/14 07:15:28;;;;;;;3.87;1.70;;;;;;;11.78;86.31;95523.66;5076825;28;20290;-71
2021/05/14 07:17:54;;;;;;;3.47;1.38;;;;;;;12.02;84.49;95523.09;5077945;28;20214;-71
2021/05/14 07:20:21;;;;;;;4.28;1.40;;;;;;;11.97;86.42;95531.59;5077783;28;20250;-71
2021/05/14 07:22:47;;;;;;;3.73;1.90;;;;;;;12.13;90.02;95525.09;5077510;28;20204;-71
2021/05/14 07:25:14;;;;;;;2.75;1.65;;;;;;;12.25;84.84;95525.09;5073798;28;20203;-71
2021/05/14 07:27:40;;;;;;;2.50;1.50;;;;;;;12.30;87.01;95522.66;5077061;28;20227;-71
2021/05/14 07:30:08;;;;;;;3.80;1.40;;;;;;;12.33;84.51;95524.91;5077643;28;21018;-72
2021/05/14 07:32:34;;;;;;;2.90;1.70;;;;;;;12.29;82.26;95523.66;5077546;28;20280;-71
2021/05/14 07:35:00;;;;;;;4.90;1.83;;;;;;;12.37;84.07;95520.00;5077243;28;20204;-71
2021/05/14 07:37:27;;;;;;;3.50;1.70;;;;;;;12.56;85.87;95525.25;5076478;28;20204;-72
2021/05/14 07:39:54;;;;;;;4.90;1.42;;;;;;;12.85;84.11;95519.50;5077850;28;20215;-71
2021/05/14 07:42:20;;;;;;;1.65;1.38;;;;;;;12.63;81.78;95531.34;5077463;28;20203;-71
2021/05/14 07:44:46;;;;;;;2.58;1.73;;;;;;;12.76;81.28;95519.94;5077546;28;20199;-71
2021/05/14 07:47:13;;;;;;;3.33;1.50;;;;;;;12.96;83.10;95521.56;5076478;28;20203;-72
2021/05/14 07:49:39;;;;;;;2.83;1.60;;;;;;;13.03;79.88;95523.13;5077307;28;20208;-72
2021/05/14 07:52:05;;;;;;;3.10;1.48;;;;;;;13.19;83.15;95522.66;5076536;28;20196;-71
2021/05/14 07:54:32;;;;;;;1.83;1.25;;;;;;;13.09;79.21;95522.31;5076856;28;20204;-71
2021/05/14 07:56:58;;;;;;;2.00;1.25;;;;;;;13.25;80.00;95526.31;5076580;28;20204;-71
2021/05/14 07:59:24;;;;;;;3.38;0.95;;;;;;;13.47;75.53;95520.50;5077103;28;20203;-70
2021/05/14 08:01:50;;;;;;;0.65;0.55;;;;;;;13.60;72.79;95523.88;5077085;28;20230;-71
2021/05/14 08:04:16;;;;;;;1.10;0.70;;;;;;;13.72;74.72;95524.84;5077430;28;20327;-71
2021/05/14 08:06:42;;;;;;;3.05;0.82;;;;;;;13.90;73.56;95521.44;5076136;28;20654;-70
2021/05/14 08:09:10;;;;;;;2.35;0.70;;;;;;;14.11;75.47;95514.00;5076693;28;20218;-71
2021/05/14 08:11:37;;;;;;;2.92;1.00;;;;;;;14.20;73.46;95518.00;5077926;28;20227;-71
2021/05/14 08:14:03;;;;;;;3.10;0.88;;;;;;;14.62;73.50;95515.38;5076378;28;20207;-71
2021/05/14 08:16:30;;;;;;;1.85;1.00;;;;;;;14.68;69.23;95511.84;5075405;28;20210;-71
2021/05/14 08:18:56;;;;;;;1.63;0.65;;;;;;;14.49;66.03;95512.06;5077248;28;20215;-71
2021/05/14 08:21:22;;;;;;;1.90;0.85;;;;;;;14.58;68.53;95508.88;5076805;28;20227;-71
2021/05/14 08:23:48;;;;;;;2.67;0.82;;;;;;;14.75;69.24;95508.13;5076000;28;20590;-72
2021/05/14 08:26:14;;;;;;;3.17;0.80;;;;;;;14.93;67.19;95505.47;5073727;28;20642;-71
2021/05/14 08:28:42;;;;;;;4.15;0.70;;;;;;;14.69;66.37;95508.19;5076889;28;20257;-71
2021/05/14 08:31:08;;;;;;;3.10;0.70;;;;;;;14.89;67.50;95503.47;5076413;28;20811;-71
2021/05/14 08:33:33;;;;;;;2.35;0.70;;;;;;;14.56;64.32;95510.97;5077205;28;20240;-71
2021/05/14 08:35:59;;;;;;;1.85;0.73;;;;;;;14.45;66.37;95501.06;5076097;28;20643;-71
2021/05/14 08:38:26;;;;;;;0.57;0.40;;;;;;;14.51;66.12;95500.19;5080318;28;20253;-72
2021/05/14 08:40:53;;;;;;;0.80;0.68;;;;;;;14.77;66.14;95499.94;5079895;28;20699;-71
2021/05/14 08:43:19;;;;;;;0.38;0.38;;;;;;;14.69;63.87;95508.19;5080208;28;20212;-72
2021/05/14 08:45:46;;;;;;;0.82;0.40;;;;;;;14.48;65.02;95510.41;5079022;28;20204;-72
2021/05/14 08:48:12;;;;;;;0.47;0.40;;;;;;;14.39;64.98;95511.72;5079730;28;20203;-72
2021/05/14 08:50:39;;;;;;;1.83;0.68;;;;;;;14.42;65.77;95505.97;5079986;28;20212;-72
2021/05/14 08:53:06;;;;;;;2.85;0.70;;;;;;;14.74;66.25;95501.19;5080370;28;20204;-72
2021/05/14 08:55:32;;;;;;;3.00;0.50;;;;;;;15.33;67.44;95504.78;5079507;28;20219;-72
2021/05/14 08:57:58;;;;;;;4.03;0.43;;;;;;;15.45;64.19;95510.16;5079605;28;20203;-72
2021/05/14 09:00:25;;;;;;;1.75;0.50;;;;;;;15.56;62.39;95498.78;5079630;28;20223;-72
2021/05/14 09:02:53;;;;;;;0.40;0.40;;;;;;;15.44;62.93;95512.00;5079830;28;20200;-72
2021/05/14 09:05:20;;;;;;;0.80;0.40;;;;;;;14.95;61.29;95506.03;5079155;28;20259;-71
2021/05/14 09:07:46;;;;;;;1.45;0.60;;;;;;;15.11;64.01;95496.66;5079475;28;20820;-72
2021/05/14 09:10:13;;;;;;;0.30;0.30;;;;;;;15.32;61.65;95500.53;5079054;28;20262;-72
2021/05/14 09:12:41;;;;;;;0.95;0.35;;;;;;;15.36;63.11;95500.88;5079906;28;20596;-72
2021/05/14 09:15:24;;;;;;;0.75;0.40;;;;;;;15.28;60.98;95495.88;5078258;28;20200;-71
2021/05/14 09:18:12;;;;;;;13.75;1.30;;;;;;;15.36;58.60;95506.19;5077666;28;20388;-72
2021/05/14 09:20:40;;;;;;;1.27;0.40;;;;;;;15.34;58.84;95502.97;5078360;28;21348;-72
2021/05/14 09:23:40;;;;;;;0.88;0.40;;;;;;;15.17;60.53;95504.56;5079738;28;20203;-71
2021/05/14 09:26:07;;;;;;;1.00;0.50;;;;;;;15.25;61.06;95504.31;5075637;28;20257;-72
2021/05/14 09:28:36;;;;;;;1.48;0.52;;;;;;;15.43;62.56;95501.63;5079677;28;20211;-72
2021/05/14 09:31:13;;;;;;;0.30;0.30;;;;;;;15.26;59.18;95511.22;5079422;28;20220;-71
2021/05/14 09:33:41;;;;;;;2.38;0.45;;;;;;;15.21;62.61;95503.13;5077333;28;20207;-72
2021/05/14 09:36:09;;;;;;;0.32;0.30;;;;;;;15.06;61.83;95507.13;5078323;28;20210;-72
2021/05/14 09:38:42;;;;;;;4.57;0.60;;;;;;;15.13;60.65;95505.25;5079881;28;20218;-72
2021/05/14 09:41:29;;;;;;;6.65;0.75;;;;;;;14.95;60.95;95503.38;5078908;28;20231;-72
2021/05/14 09:43:57;;;;;;;2.05;0.90;;;;;;;15.14;62.57;95512.97;5079319;28;20210;-72
2021/05/14 09:46:31;;;;;;;0.60;0.50;;;;;;;14.80;72.63;95508.25;5078978;28;20286;-72
2021/05/14 09:49:00;;;;;;;3.92;0.75;;;;;;;15.14;73.60;95507.66;5078987;28;20199;-71
2021/05/14 09:51:27;;;;;;;2.95;0.70;;;;;;;14.95;69.76;95507.91;5078438;28;20351;-72
2021/05/14 09:53:53;;;;;;;0.70;0.60;;;;;;;15.01;72.79;95504.38;5079309;28;20680;-72
2021/05/14 09:56:27;;;;;;;2.05;0.70;;;;;;;14.63;75.72;95510.91;5078738;28;20208;-71
2021/05/14 09:58:59;;;;;;;0.88;0.55;;;;;;;14.40;76.14;95513.34;5079125;28;20204;-72
2021/05/14 10:01:27;;;;;;;2.17;0.60;;;;;;;14.16;78.28;95511.50;5078826;28;20234;-72
2021/05/14 10:03:55;;;;;;;2.13;0.55;;;;;;;14.06;80.75;95519.09;5079139;28;20195;-71
2021/05/14 10:06:22;;;;;;;0.80;0.60;;;;;;;14.22;77.36;95511.47;5078492;28;20294;-72
2021/05/14 10:08:51;;;;;;;0.50;0.47;;;;;;;14.08;76.19;95509.13;5078996;28;20203;-72
2021/05/14 10:11:17;;;;;;;3.38;0.68;;;;;;;14.22;76.94;95510.66;5078793;28;20216;-71
2021/05/14 10:13:43;;;;;;;0.95;0.68;;;;;;;14.57;78.15;95511.75;5079078;28;20676;-72
2021/05/14 10:16:09;;;;;;;2.47;0.60;;;;;;;14.64;75.52;95511.47;5077521;28;20230;-72
2021/05/14 10:18:38;;;;;;;1.50;0.50;;;;;;;15.07;73.12;95506.94;5079408;28;20666;-72
2021/05/14 10:21:07;;;;;;;2.22;0.60;;;;;;;15.44;68.09;95504.06;5079286;28;20230;-72
2021/05/14 10:23:34;;;;;;;2.00;0.80;;;;;;;15.66;70.28;95502.53;5078866;28;20681;-71
2021/05/14 10:26:06;;;;;;;3.58;0.70;;;;;;;15.83;66.50;95503.50;5075341;28;20203;-71
2021/05/14 10:28:38;;;;;;;0.65;0.50;;;;;;;15.78;65.86;95500.72;5078966;28;20199;-72
2021/05/14 10:31:24;;;;;;;0.93;0.55;;;;;;;15.71;68.43;95493.91;5078612;28;20222;-72
2021/05/14 10:33:53;;;;;;;1.38;0.60;;;;;;;15.48;70.84;95496.47;5078284;28;20210;-72
2021/05/14 10:36:45;;;;;;;0.70;0.60;;;;;;;15.30;66.91;95499.13;5078549;28;20299;-71
2021/05/14 10:39:15;;;;;;;1.05;0.50;;;;;;;15.25;68.83;95497.16;5078308;28;20296;-72
2021/05/14 10:41:52;;;;;;;0.80;0.63;;;;;;;15.20;71.19;95496.16;5078218;28;20361;-71
2021/05/14 10:44:38;;;;;;;1.13;0.60;;;;;;;15.02;72.84;95498.84;5078990;28;20208;-71
2021/05/14 10:47:49;;;;;;;0.60;0.60;;;;;;;14.90;74.37;95503.22;5077289;28;20199;-71
2021/05/14 10:50:41;;;;;;;0.65;0.60;;;;;;;15.22;71.40;95494.13;5078696;28;20219;-71
2021/05/14 10:53:36;;;;;;;0.65;0.50;;;;;;;16.02;69.30;95497.09;5077282;28;20291;-71
2021/05/14 10:56:51;;;;;;;0.45;0.40;;;;;;;16.74;61.51;95492.22;5077746;28;20219;-71
2021/05/14 10:59:31;;;;;;;1.05;0.43;;;;;;;16.64;60.69;95497.31;5076511;28;20773;-71
2021/05/14 11:01:58;;;;;;;0.52;0.40;;;;;;;17.14;58.45;95492.06;5077649;28;20219;-71
2021/05/14 11:04:41;;;;;;;1.40;0.40;;;;;;;17.24;58.68;95488.78;5077715;28;20250;-71
2021/05/14 11:07:35;;;;;;;1.00;0.40;;;;;;;17.37;59.64;95489.31;5077056;28;20246;-71
2021/05/14 11:10:26;;;;;;;0.95;0.40;;;;;;;17.00;57.66;95483.75;5077027;28;20219;-71
2021/05/14 11:12:54;;;;;;;0.95;0.43;;;;;;;16.67;61.09;95486.19;5077045;28;20207;-71
2021/05/14 11:15:40;;;;;;;1.02;0.50;;;;;;;16.38;61.20;95481.81;5077404;28;20223;-72
2021/05/14 11:18:26;;;;;;;1.23;0.40;;;;;;;15.84;62.14;95496.34;5072192;28;20211;-71
2021/05/14 11:20:53;;;;;;;2.17;0.50;;;;;;;15.43;63.63;95493.66;5076928;28;20693;-71
2021/05/14 11:23:39;;;;;;;2.08;0.60;;;;;;;15.56;67.01;95486.31;5077785;28;20206;-71
2021/05/14 11:26:07;;;;;;;0.55;0.50;;;;;;;15.67;65.85;95487.38;5074369;28;20196;-71
2021/05/14 11:28:39;;;;;;;4.03;0.77;;;;;;;16.06;62.13;95488.44;5077331;28;20196;-71
2021/05/14 11:31:05;;;;;;;10.65;1.05;;;;;;;16.70;64.32;95485.72;5077622;28;20344;-70
2021/05/14 11:33:31;;;;;;;8.57;0.73;;;;;;;17.34;60.68;95476.50;5077198;28;20582;-71
2021/05/14 11:35:57;;;;;;;1.00;0.57;;;;;;;17.57;58.36;95473.75;5076445;28;20504;-71
2021/05/14 11:38:23;;;;;;;0.60;0.57;;;;;;;17.70;59.68;95478.00;5077037;28;20215;-71